createdAt,value
2022-11-10T00:02:14.970Z,100920.75
2022-11-10T00:04:41.732Z,100918.16
2022-11-10T00:07:08.544Z,100922.28
2022-11-10T00:09:35.466Z,100923.91
2022-11-10T00:12:02.229Z,100924.66
2022-11-10T00:14:47.855Z,100920.59
2022-11-10T00:17:14.611Z,100928.59
2022-11-10T00:19:41.347Z,100919.47
2022-11-10T00:22:08.124Z,100929.94
2022-11-10T00:24:34.888Z,100938.31
2022-11-10T00:27:02.215Z,100941.72
2022-11-10T00:29:29.022Z,100936.13
2022-11-10T00:31:55.767Z,100938.75
2022-11-10T00:34:22.553Z,100946.59
2022-11-10T00:36:49.330Z,100955.47
2022-11-10T00:39:16.095Z,100962.31
2022-11-10T00:41:42.849Z,100971.13
2022-11-10T00:44:09.678Z,100968.53
2022-11-10T00:46:36.445Z,100969.97
2022-11-10T00:49:03.311Z,100967.16
2022-11-10T00:51:30.192Z,100977.13
2022-11-10T00:53:57.007Z,100977.53
2022-11-10T00:56:23.776Z,100990.16
2022-11-10T00:58:50.564Z,100983.00
2022-11-10T01:01:17.488Z,100986.22
2022-11-10T01:03:44.351Z,100995.13
2022-11-10T01:06:11.152Z,100996.38
2022-11-10T01:08:37.901Z,100992.88
2022-11-10T01:11:04.655Z,100995.94
2022-11-10T01:13:31.506Z,100991.69
2022-11-10T01:15:58.281Z,100986.31
2022-11-10T01:18:25.045Z,101003.50
2022-11-10T01:20:51.836Z,101013.00
2022-11-10T01:23:18.674Z,101012.50
2022-11-10T01:25:45.500Z,101014.56
2022-11-10T01:28:12.264Z,101018.94
2022-11-10T01:30:39.020Z,101013.59
2022-11-10T01:33:05.782Z,101021.53
2022-11-10T01:35:32.531Z,101032.97
2022-11-10T01:37:59.292Z,101030.81
2022-11-10T01:40:26.112Z,101026.06
2022-11-10T01:42:52.925Z,101031.16
2022-11-10T01:45:19.685Z,101028.72
2022-11-10T01:47:46.432Z,101030.25
2022-11-10T01:50:13.200Z,101024.25
2022-11-10T01:52:39.949Z,101024.84
2022-11-10T01:55:06.768Z,101031.75
2022-11-10T01:57:33.562Z,101033.88
2022-11-10T02:00:00.349Z,101033.19
2022-11-10T02:02:27.110Z,101037.13
2022-11-10T02:04:53.901Z,101039.78
2022-11-10T02:07:20.648Z,101041.88
2022-11-10T02:09:47.396Z,101050.78
2022-11-10T02:12:14.154Z,101053.97
2022-11-10T02:14:40.925Z,101050.13
2022-11-10T02:17:07.716Z,101054.91
2022-11-10T02:19:34.509Z,101066.91
2022-11-10T02:22:01.282Z,101066.31
2022-11-10T02:24:28.036Z,101064.31
2022-11-10T02:26:54.876Z,101061.06
2022-11-10T02:29:21.633Z,101068.91
2022-11-10T02:31:48.459Z,101056.75
2022-11-10T02:34:15.254Z,101062.06
2022-11-10T02:36:42.064Z,101061.66
2022-11-10T02:39:08.828Z,101069.09
2022-11-10T02:41:35.586Z,101072.56
2022-11-10T02:44:02.341Z,101082.44
2022-11-10T02:46:29.097Z,101078.38
2022-11-10T02:48:55.899Z,101077.94
2022-11-10T02:51:22.646Z,101081.41
2022-11-10T02:53:50.057Z,101091.16
2022-11-10T02:56:16.843Z,101096.81
2022-11-10T02:58:43.597Z,101095.75
2022-11-10T03:01:10.475Z,101097.56
2022-11-10T03:03:37.445Z,101093.56
2022-11-10T03:06:04.248Z,101093.31
2022-11-10T03:08:30.988Z,101100.00
2022-11-10T03:10:57.788Z,101095.25
2022-11-10T03:13:24.897Z,101108.91
2022-11-10T03:15:51.920Z,101103.16
2022-11-10T03:18:18.694Z,101107.78
2022-11-10T03:20:45.447Z,101114.81
2022-11-10T03:23:12.197Z,101124.94
2022-11-10T03:25:39.022Z,101125.13
2022-11-10T03:28:05.804Z,101130.38
2022-11-10T03:30:32.556Z,101137.09
2022-11-10T03:32:59.326Z,101143.66
2022-11-10T03:35:26.117Z,101145.03
2022-11-10T03:37:52.875Z,101146.72
2022-11-10T03:40:19.651Z,101151.69
2022-11-10T03:42:46.404Z,101158.00
2022-11-10T03:45:13.151Z,101158.06
2022-11-10T03:47:39.986Z,101169.50
2022-11-10T03:50:06.720Z,101166.06
2022-11-10T03:52:33.539Z,101162.09
2022-11-10T03:55:03.301Z,101163.38
2022-11-10T03:57:30.482Z,101157.16
2022-11-10T03:59:57.237Z,101164.00
2022-11-10T04:02:24.020Z,101165.97
2022-11-10T04:05:09.565Z,101160.84
2022-11-10T04:07:54.884Z,101154.50
2022-11-10T04:10:21.716Z,101169.22
2022-11-10T04:13:07.218Z,101174.53
2022-11-10T04:15:42.800Z,101177.06
2022-11-10T04:18:21.634Z,101175.53
2022-11-10T04:20:48.392Z,101186.03
2022-11-10T04:23:27.459Z,101178.03
2022-11-10T04:26:13.113Z,101185.38
2022-11-10T04:28:39.886Z,101200.34
2022-11-10T04:31:06.704Z,101191.22
2022-11-10T04:33:33.514Z,101200.16
2022-11-10T04:36:00.294Z,101204.78
2022-11-10T04:38:27.049Z,101206.78
2022-11-10T04:40:53.816Z,101207.34
2022-11-10T04:43:20.991Z,101209.00
2022-11-10T04:45:48.032Z,101229.72
2022-11-10T04:48:14.822Z,101230.78
2022-11-10T04:50:41.630Z,101226.72
2022-11-10T04:53:08.373Z,101226.69
2022-11-10T04:55:35.116Z,101227.53
2022-11-10T04:58:01.947Z,101237.91
2022-11-10T05:00:28.771Z,101237.22
2022-11-10T05:02:55.551Z,101252.44
2022-11-10T05:05:22.313Z,101246.72
2022-11-10T05:07:49.094Z,101244.78
2022-11-10T05:10:15.901Z,101243.63
2022-11-10T05:12:42.653Z,101247.59
2022-11-10T05:15:09.395Z,101249.75
2022-11-10T05:17:36.147Z,101254.56
2022-11-10T05:20:03.399Z,101262.22
2022-11-10T05:22:30.158Z,101262.72
2022-11-10T05:24:56.961Z,101264.63
2022-11-10T05:27:23.766Z,101277.09
2022-11-10T05:29:50.522Z,101274.13
2022-11-10T05:32:17.288Z,101285.75
2022-11-10T05:34:44.045Z,101283.41
2022-11-10T05:37:10.792Z,101293.53
2022-11-10T05:39:37.545Z,101297.59
2022-11-10T05:42:04.371Z,101298.63
2022-11-10T05:44:31.144Z,101307.72
2022-11-10T05:46:57.980Z,101308.72
2022-11-10T05:49:24.748Z,101314.19
2022-11-10T05:51:51.509Z,101314.22
2022-11-10T05:54:18.255Z,101307.09
2022-11-10T05:56:45.824Z,101318.94
2022-11-10T05:59:12.589Z,101321.59
2022-11-10T06:01:39.334Z,101328.09
2022-11-10T06:04:06.212Z,101333.31
2022-11-10T06:06:33.015Z,101340.50
2022-11-10T06:08:59.855Z,101337.13
2022-11-10T06:11:26.722Z,101347.09
2022-11-10T06:13:53.504Z,101359.97
2022-11-10T06:16:20.257Z,101361.06
2022-11-10T06:18:47.033Z,101365.06
2022-11-10T06:21:13.876Z,101376.47
2022-11-10T06:23:40.711Z,101379.03
2022-11-10T06:26:07.502Z,101389.59
2022-11-10T06:28:34.376Z,101395.97
2022-11-10T06:31:01.282Z,101398.91
2022-11-10T06:33:28.079Z,101397.13
2022-11-10T06:35:55.128Z,101398.06
2022-11-10T06:38:21.896Z,101409.47
2022-11-10T06:40:48.657Z,101408.97
2022-11-10T06:43:15.441Z,101413.19
2022-11-10T06:45:42.193Z,101421.28
2022-11-10T06:48:08.972Z,101419.19
2022-11-10T06:50:35.914Z,101419.81
2022-11-10T06:53:02.657Z,101427.88
2022-11-10T06:55:29.443Z,101446.50
2022-11-10T06:57:56.224Z,101440.19
2022-11-10T07:00:23.047Z,101439.56
2022-11-10T07:02:49.862Z,101452.03
2022-11-10T07:05:16.693Z,101458.59
2022-11-10T07:07:43.465Z,101465.31
2022-11-10T07:10:10.243Z,101461.50
2022-11-10T07:12:37.044Z,101472.41
2022-11-10T07:15:03.817Z,101478.69
2022-11-10T07:17:30.575Z,101486.16
2022-11-10T07:19:57.325Z,101491.34
2022-11-10T07:22:24.857Z,101496.69
2022-11-10T07:24:51.679Z,101498.28
2022-11-10T07:27:18.433Z,101506.97
2022-11-10T07:29:45.368Z,101503.63
2022-11-10T07:32:12.265Z,101506.44
2022-11-10T07:34:39.179Z,101508.50
2022-11-10T07:37:05.942Z,101516.38
2022-11-10T07:39:32.709Z,101523.38
2022-11-10T07:41:59.570Z,101521.47
2022-11-10T07:44:27.668Z,101536.75
2022-11-10T07:46:54.499Z,101538.44
2022-11-10T07:49:21.261Z,101532.25
2022-11-10T07:51:48.020Z,101538.44
2022-11-10T07:54:15.277Z,101546.44
2022-11-10T07:56:42.402Z,101551.31
2022-11-10T07:59:09.260Z,101559.75
2022-11-10T08:01:36.186Z,101567.63
2022-11-10T08:04:03.018Z,101562.75
2022-11-10T08:06:34.902Z,101557.53
2022-11-10T08:09:02.855Z,101568.97
2022-11-10T08:11:29.669Z,101575.78
2022-11-10T08:13:56.416Z,101583.88
2022-11-10T08:16:23.191Z,101578.00
2022-11-10T08:18:50.043Z,101582.66
2022-11-10T08:21:16.832Z,101580.56
2022-11-10T08:23:44.674Z,101586.03
2022-11-10T08:26:11.431Z,101582.34
2022-11-10T08:28:38.306Z,101581.59
2022-11-10T08:31:06.214Z,101590.78
2022-11-10T08:33:33.285Z,101601.16
2022-11-10T08:36:00.077Z,101614.00
2022-11-10T08:38:26.872Z,101612.03
2022-11-10T08:40:53.630Z,101600.03
2022-11-10T08:43:20.742Z,101614.69
2022-11-10T08:45:47.789Z,101621.50
2022-11-10T08:48:14.607Z,101620.09
2022-11-10T08:50:41.420Z,101618.16
2022-11-10T08:53:08.250Z,101621.59
2022-11-10T08:55:35.025Z,101624.97
2022-11-10T08:58:01.781Z,101627.69
2022-11-10T09:00:28.714Z,101623.53
2022-11-10T09:02:56.052Z,101636.44
2022-11-10T09:05:22.812Z,101631.59
2022-11-10T09:07:49.814Z,101645.22
2022-11-10T09:10:16.612Z,101650.69
2022-11-10T09:12:43.450Z,101654.22
2022-11-10T09:15:10.266Z,101658.03
2022-11-10T09:17:37.087Z,101651.09
2022-11-10T09:20:03.872Z,101653.16
2022-11-10T09:22:30.697Z,101653.81
2022-11-10T09:24:57.657Z,101658.81
2022-11-10T09:27:24.455Z,101665.63
2022-11-10T09:29:51.220Z,101663.13
2022-11-10T09:32:18.125Z,101669.84
2022-11-10T09:34:48.952Z,101672.41
2022-11-10T09:37:19.576Z,101668.41
2022-11-10T09:39:46.323Z,101664.91
2022-11-10T09:42:13.061Z,101667.16
2022-11-10T09:44:39.879Z,101670.19
2022-11-10T09:47:06.655Z,101671.28
2022-11-10T09:49:33.480Z,101682.94
2022-11-10T09:52:00.285Z,101687.22
2022-11-10T09:54:27.050Z,101691.84
2022-11-10T09:56:55.864Z,101693.06
2022-11-10T09:59:22.635Z,101700.69
2022-11-10T10:01:49.546Z,101700.28
2022-11-10T10:04:16.344Z,101702.25
2022-11-10T10:07:04.847Z,101700.38
2022-11-10T10:09:29.840Z,101693.59
2022-11-10T10:11:56.626Z,101693.84
2022-11-10T10:14:23.380Z,101698.66
2022-11-10T10:16:50.249Z,101699.13
2022-11-10T10:19:17.024Z,101704.03
2022-11-10T10:21:43.790Z,101707.19
2022-11-10T10:24:15.160Z,101709.50
2022-11-10T10:26:46.836Z,101716.47
2022-11-10T10:29:13.600Z,101704.72
2022-11-10T10:31:40.368Z,101711.94
2022-11-10T10:34:07.123Z,101703.28
2022-11-10T10:36:33.859Z,101707.19
2022-11-10T10:39:00.939Z,101712.16
2022-11-10T10:41:27.743Z,101707.59
2022-11-10T10:43:54.553Z,101708.50
2022-11-10T10:46:27.654Z,101711.75
2022-11-10T10:49:22.177Z,101716.47
2022-11-10T10:51:42.964Z,101715.69
2022-11-10T10:54:09.744Z,101723.03
2022-11-10T10:56:36.493Z,101718.91
2022-11-10T10:59:03.238Z,101727.31
2022-11-10T11:01:30.457Z,101714.34
2022-11-10T11:03:57.399Z,101715.59
2022-11-10T11:06:26.640Z,101715.19
2022-11-10T11:08:58.230Z,101717.94
2022-11-10T11:11:26.170Z,101712.34
2022-11-10T11:13:52.970Z,101716.69
2022-11-10T11:16:19.896Z,101721.94
2022-11-10T11:18:46.657Z,101728.78
2022-11-10T11:21:13.402Z,101724.19
2022-11-10T11:23:40.168Z,101728.94
2022-11-10T11:26:06.920Z,101723.53
2022-11-10T11:28:33.708Z,101737.91
2022-11-10T11:31:00.530Z,101734.44
2022-11-10T11:33:28.975Z,101740.03
2022-11-10T11:35:55.711Z,101738.19
2022-11-10T11:38:22.779Z,101751.25
2022-11-10T11:40:49.791Z,101755.03
2022-11-10T11:43:16.551Z,101769.25
2022-11-10T11:45:43.626Z,101774.47
2022-11-10T11:48:10.427Z,101767.28
2022-11-10T11:50:37.180Z,101772.47
2022-11-10T11:53:03.961Z,101763.97
2022-11-10T11:55:31.220Z,101767.91
2022-11-10T11:57:58.106Z,101768.38
2022-11-10T12:00:24.890Z,101771.22
2022-11-10T12:02:53.459Z,101752.84
2022-11-10T12:05:20.303Z,101748.38
2022-11-10T12:07:47.077Z,101748.69
2022-11-10T12:10:13.928Z,101754.03
2022-11-10T12:12:40.769Z,101761.94
2022-11-10T12:15:07.695Z,101771.38
2022-11-10T12:17:34.472Z,101778.69
2022-11-10T12:20:01.235Z,101780.06
2022-11-10T12:22:27.998Z,101777.63
2022-11-10T12:24:54.812Z,101780.00
2022-11-10T12:27:21.556Z,101778.34
2022-11-10T12:29:48.325Z,101772.31
2022-11-10T12:32:15.081Z,101763.94
2022-11-10T12:34:43.741Z,101770.13
2022-11-10T12:37:10.504Z,101763.84
2022-11-10T12:39:37.249Z,101777.34
2022-11-10T12:42:04.078Z,101779.63
2022-11-10T12:44:30.864Z,101778.22
2022-11-10T12:46:57.620Z,101784.16
2022-11-10T12:49:24.389Z,101777.53
2022-11-10T12:51:51.206Z,101786.28
2022-11-10T12:54:17.998Z,101781.16
2022-11-10T12:56:44.925Z,101784.97
2022-11-10T12:59:11.737Z,101780.72
2022-11-10T13:01:38.542Z,101775.22
2022-11-10T13:04:05.319Z,101774.25
2022-11-10T13:06:32.144Z,101770.78
2022-11-10T13:08:58.968Z,101771.09
2022-11-10T13:11:25.755Z,101783.03
2022-11-10T13:13:58.175Z,101779.44
2022-11-10T13:16:26.285Z,101790.47
2022-11-10T13:18:53.067Z,101784.88
2022-11-10T13:21:19.821Z,101802.34
2022-11-10T13:23:46.568Z,101809.06
2022-11-10T13:26:13.325Z,101821.59
2022-11-10T13:28:40.085Z,101819.03
2022-11-10T13:31:06.886Z,101807.72
2022-11-10T13:33:33.908Z,101819.78
2022-11-10T13:36:00.664Z,101816.28
2022-11-10T13:38:27.416Z,101818.09
2022-11-10T13:40:54.246Z,101827.00
2022-11-10T13:43:21.064Z,101832.69
2022-11-10T13:45:47.834Z,101836.75
2022-11-10T13:48:14.631Z,101839.72
2022-11-10T13:50:41.483Z,101851.38
2022-11-10T13:53:08.255Z,101842.94
2022-11-10T13:55:35.027Z,101840.84
2022-11-10T13:58:01.779Z,101846.47
2022-11-10T14:00:28.591Z,101846.72
2022-11-10T14:02:55.587Z,101856.53
2022-11-10T14:05:22.368Z,101851.75
2022-11-10T14:07:49.125Z,101862.34
2022-11-10T14:10:15.905Z,101858.69
2022-11-10T14:12:42.676Z,101857.75
2022-11-10T14:15:09.455Z,101865.50
2022-11-10T14:17:36.254Z,101864.94
2022-11-10T14:20:03.902Z,101864.09
2022-11-10T14:22:30.793Z,101870.38
2022-11-10T14:24:57.590Z,101864.50
2022-11-10T14:27:24.354Z,101864.41
2022-11-10T14:29:51.099Z,101871.22
2022-11-10T14:32:18.147Z,101877.53
2022-11-10T14:34:44.892Z,101877.31
2022-11-10T14:37:11.662Z,101880.88
2022-11-10T14:39:38.436Z,101878.41
2022-11-10T14:42:05.194Z,101882.41
2022-11-10T14:44:32.003Z,101891.47
2022-11-10T14:46:59.242Z,101886.59
2022-11-10T14:49:26.014Z,101891.22
2022-11-10T14:51:52.833Z,101885.69
2022-11-10T14:54:19.623Z,101884.16
2022-11-10T14:56:47.435Z,101886.28
2022-11-10T14:59:14.175Z,101883.94
2022-11-10T15:01:42.131Z,101888.94
2022-11-10T15:04:08.875Z,101887.59
2022-11-10T15:06:35.650Z,101906.91
2022-11-10T15:09:02.468Z,101898.19
2022-11-10T15:11:29.221Z,101903.28
2022-11-10T15:13:55.980Z,101898.25
2022-11-10T15:16:22.812Z,101903.94
2022-11-10T15:18:50.917Z,101910.34
2022-11-10T15:21:17.709Z,101905.44
2022-11-10T15:23:44.480Z,101905.03
2022-11-10T15:26:11.231Z,101915.81
2022-11-10T15:28:37.989Z,101910.75
2022-11-10T15:31:05.340Z,101907.47
2022-11-10T15:33:32.390Z,101913.09
2022-11-10T15:35:59.142Z,101912.31
2022-11-10T15:38:26.121Z,101911.75
2022-11-10T15:40:53.112Z,101922.41
2022-11-10T15:43:20.266Z,101926.59
2022-11-10T15:45:47.254Z,101925.19
2022-11-10T15:48:14.030Z,101915.13
2022-11-10T15:50:40.820Z,101915.78
2022-11-10T15:53:07.896Z,101918.47
2022-11-10T15:55:35.391Z,101916.63
2022-11-10T15:58:02.395Z,101919.38
2022-11-10T16:00:29.159Z,101916.09
2022-11-10T16:02:55.995Z,101918.56
2022-11-10T16:05:22.808Z,101921.06
2022-11-10T16:07:49.696Z,101930.91
2022-11-10T16:10:16.475Z,101918.31
2022-11-10T16:12:43.256Z,101917.41
2022-11-10T16:15:10.361Z,101916.97
2022-11-10T16:17:37.341Z,101914.81
2022-11-10T16:20:04.284Z,101917.34
2022-11-10T16:22:31.060Z,101904.22
2022-11-10T16:24:57.824Z,101918.47
2022-11-10T16:27:24.599Z,101916.22
2022-11-10T16:29:51.370Z,101924.16
2022-11-10T16:32:18.126Z,101939.66
2022-11-10T16:34:45.009Z,101940.47
2022-11-10T16:37:11.853Z,101950.25
2022-11-10T16:39:38.616Z,101964.13
2022-11-10T16:42:05.363Z,101964.66
2022-11-10T16:44:32.147Z,101959.91
2022-11-10T16:46:58.904Z,101962.28
2022-11-10T16:49:25.719Z,101965.59
2022-11-10T16:51:52.535Z,101965.78
2022-11-10T16:54:19.342Z,101971.56
2022-11-10T16:56:46.106Z,101981.03
2022-11-10T16:59:13.514Z,101981.06
2022-11-10T17:01:40.317Z,101973.81
2022-11-10T17:04:07.208Z,101973.06
2022-11-10T17:06:34.070Z,101971.88
2022-11-10T17:09:00.903Z,101974.00
2022-11-10T17:11:27.659Z,101984.69
2022-11-10T17:13:54.437Z,101995.50
2022-11-10T17:16:21.199Z,101997.97
2022-11-10T17:18:47.952Z,102009.44
2022-11-10T17:21:14.731Z,102020.19
2022-11-10T17:23:41.510Z,102018.34
2022-11-10T17:26:08.319Z,102024.84
2022-11-10T17:28:35.092Z,102023.72
2022-11-10T17:31:03.140Z,102018.41
2022-11-10T17:33:29.916Z,102015.38
2022-11-10T17:35:56.690Z,102021.06
2022-11-10T17:38:23.454Z,102020.56
2022-11-10T17:40:50.224Z,102019.41
2022-11-10T17:43:17.006Z,102019.03
2022-11-10T17:45:43.803Z,102026.00
2022-11-10T17:48:10.561Z,102025.41
2022-11-10T17:50:37.344Z,102020.66
2022-11-10T17:53:04.129Z,102028.69
2022-11-10T17:55:34.194Z,102019.06
2022-11-10T17:58:01.331Z,102018.09
2022-11-10T18:00:28.075Z,102028.09
2022-11-10T18:02:55.522Z,102020.91
2022-11-10T18:05:22.367Z,102029.91
2022-11-10T18:07:49.138Z,102027.69
2022-11-10T18:10:16.091Z,102025.81
2022-11-10T18:12:42.889Z,102025.13
2022-11-10T18:15:09.671Z,102023.88
2022-11-10T18:17:36.534Z,102032.03
2022-11-10T18:20:03.508Z,102026.31
2022-11-10T18:22:30.286Z,102018.00
2022-11-10T18:24:57.103Z,102026.66
2022-11-10T18:27:23.862Z,102027.56
2022-11-10T18:29:51.429Z,102029.09
2022-11-10T18:32:18.383Z,102031.78
2022-11-10T18:34:45.353Z,102030.47
2022-11-10T18:37:12.163Z,102033.44
2022-11-10T18:39:38.910Z,102041.13
2022-11-10T18:42:05.685Z,102040.78
2022-11-10T18:44:36.798Z,102044.06
2022-11-10T18:47:03.826Z,102056.41
2022-11-10T18:49:30.594Z,102057.25
2022-11-10T18:51:57.357Z,102049.91
2022-11-10T18:54:24.181Z,102052.81
2022-11-10T18:56:50.974Z,102052.16
2022-11-10T18:59:17.725Z,102061.22
2022-11-10T19:01:44.691Z,102064.91
2022-11-10T19:04:11.617Z,102066.75
2022-11-10T19:06:38.482Z,102075.28
2022-11-10T19:09:05.289Z,102074.56
2022-11-10T19:11:32.119Z,102082.06
2022-11-10T19:14:00.678Z,102080.06
2022-11-10T19:16:27.452Z,102079.84
2022-11-10T19:18:54.475Z,102082.63
2022-11-10T19:21:21.247Z,102082.13
2022-11-10T19:23:48.059Z,102082.75
2022-11-10T19:26:20.915Z,102089.66
2022-11-10T19:28:49.175Z,102088.50
2022-11-10T19:31:15.982Z,102084.88
2022-11-10T19:33:42.814Z,102087.03
2022-11-10T19:36:09.583Z,102087.16
2022-11-10T19:38:36.427Z,102097.97
2022-11-10T19:41:03.425Z,102089.63
2022-11-10T19:43:30.724Z,102092.72
2022-11-10T19:45:57.504Z,102090.97
2022-11-10T19:48:24.283Z,102087.53
2022-11-10T19:50:51.057Z,102097.31
2022-11-10T19:53:17.810Z,102098.94
2022-11-10T19:55:44.569Z,102091.63
2022-11-10T19:58:11.317Z,102090.50
2022-11-10T20:00:38.070Z,102098.41
2022-11-10T20:03:11.220Z,102100.69
2022-11-10T20:05:39.724Z,102099.63
2022-11-10T20:08:12.532Z,102100.53
2022-11-10T20:10:39.330Z,102113.22
2022-11-10T20:13:06.139Z,102114.53
2022-11-10T20:15:32.909Z,102114.72
2022-11-10T20:17:59.718Z,102107.59
2022-11-10T20:20:26.489Z,102104.13
2022-11-10T20:22:53.339Z,102107.78
2022-11-10T20:25:20.096Z,102104.31
2022-11-10T20:27:46.947Z,102110.50
2022-11-10T20:30:13.709Z,102112.47
2022-11-10T20:32:40.457Z,102109.13
2022-11-10T20:35:07.233Z,102109.66
2022-11-10T20:37:34.050Z,102117.97
2022-11-10T20:40:01.020Z,102125.66
2022-11-10T20:42:29.193Z,102124.59
2022-11-10T20:44:55.961Z,102128.09
2022-11-10T20:47:22.887Z,102126.44
2022-11-10T20:49:49.725Z,102135.28
2022-11-10T20:52:16.477Z,102132.50
2022-11-10T20:54:44.284Z,102131.50
2022-11-10T20:57:11.052Z,102139.00
2022-11-10T20:59:37.851Z,102145.16
2022-11-10T21:02:04.647Z,102143.25
2022-11-10T21:04:31.512Z,102144.44
2022-11-10T21:06:58.290Z,102141.97
2022-11-10T21:09:26.061Z,102146.38
2022-11-10T21:12:11.475Z,102153.22
2022-11-10T21:14:38.231Z,102147.31
2022-11-10T21:17:04.980Z,102149.28
2022-11-10T21:19:31.771Z,102146.03
2022-11-10T21:21:58.623Z,102149.44
2022-11-10T21:24:27.896Z,102147.94
2022-11-10T21:26:54.792Z,102141.91
2022-11-10T21:29:21.607Z,102142.06
2022-11-10T21:31:48.404Z,102138.78
2022-11-10T21:34:15.184Z,102133.09
2022-11-10T21:36:42.011Z,102123.78
2022-11-10T21:39:08.756Z,102123.00
2022-11-10T21:41:35.686Z,102114.34
2022-11-10T21:44:02.501Z,102112.91
2022-11-10T21:46:29.343Z,102126.94
2022-11-10T21:48:56.118Z,102125.09
2022-11-10T21:51:22.914Z,102126.75
2022-11-10T21:53:49.666Z,102129.78
2022-11-10T21:56:16.474Z,102134.22
2022-11-10T21:58:43.273Z,102127.59
2022-11-10T22:01:10.122Z,102133.88
2022-11-10T22:03:36.978Z,102134.22
2022-11-10T22:06:03.872Z,102136.72
2022-11-10T22:08:30.643Z,102131.16
2022-11-10T22:11:15.880Z,102124.34
2022-11-10T22:14:01.268Z,102128.16
2022-11-10T22:16:46.652Z,102134.84
2022-11-10T22:19:13.608Z,102130.47
2022-11-10T22:21:40.359Z,102126.16
2022-11-10T22:24:25.736Z,102130.13
2022-11-10T22:26:52.504Z,102136.94
2022-11-10T22:29:19.247Z,102143.50
2022-11-10T22:31:46.038Z,102150.09
2022-11-10T22:34:12.815Z,102157.09
2022-11-10T22:36:39.588Z,102160.81
2022-11-10T22:39:06.428Z,102164.72
2022-11-10T22:41:51.835Z,102171.78
2022-11-10T22:44:19.465Z,102172.69
2022-11-10T22:46:52.002Z,102163.91
2022-11-10T22:49:18.766Z,102164.06
2022-11-10T22:51:45.535Z,102171.31
2022-11-10T22:54:12.297Z,102184.72
2022-11-10T22:56:39.265Z,102194.31
2022-11-10T22:59:06.075Z,102203.47
2022-11-10T23:01:32.909Z,102201.66
2022-11-10T23:03:59.720Z,102197.38
2022-11-10T23:06:26.551Z,102202.41
2022-11-10T23:08:53.321Z,102197.75
2022-11-10T23:11:20.196Z,102203.69
2022-11-10T23:13:47.014Z,102202.88
2022-11-10T23:16:13.772Z,102194.09
2022-11-10T23:18:40.598Z,102193.72
2022-11-10T23:21:07.398Z,102198.91
2022-11-10T23:23:34.140Z,102197.63
2022-11-10T23:26:00.883Z,102192.97
2022-11-10T23:28:27.796Z,102201.38
2022-11-10T23:30:54.572Z,102201.56
2022-11-10T23:33:21.571Z,102199.13
2022-11-10T23:35:48.916Z,102209.63
2022-11-10T23:38:16.215Z,102200.03
2022-11-10T23:40:42.997Z,102200.78
2022-11-10T23:43:09.818Z,102198.03
2022-11-10T23:46:04.888Z,102193.41
2022-11-10T23:48:23.643Z,102195.06
2022-11-10T23:50:50.626Z,102203.66
2022-11-10T23:53:17.393Z,102197.34
2022-11-10T23:55:44.208Z,102199.47
2022-11-10T23:58:10.978Z,102204.22
